Terminal Aerodrome Forecast
Issued by NWS Mt. Holly, NJ

Home | Current Version | Previous Version | Text Only | Print | Product List | Glossary On
Versions: 1 2 3 4 5 6 7 8 9 10 11 12 13 14 15
462
FTUS41 KPHI 270520
TAFABE
TAF
KABE 270520Z 2706/2806 VRB02KT P6SM BKN200
     FM271000 VRB02KT P6SM VCSH OVC100
     FM271200 VRB02KT P6SM OVC050
      TEMPO 2712/2714 5SM -RA
     FM271400 VRB02KT 6SM -RA OVC025
     FM271500 VRB03KT 6SM -RA OVC015
     FM272000 02005KT 6SM -SHRA OVC025=

USA.gov is the U.S. government's official web portal to all federal, state and local government web resources and services.